createdAt,value
2018-07-11T00:02:15.057Z,14.70
2018-07-11T00:04:44.043Z,14.70
2018-07-11T00:07:13.067Z,14.70
2018-07-11T00:09:41.324Z,14.70
2018-07-11T00:12:10.289Z,14.60
2018-07-11T00:14:38.511Z,14.60
2018-07-11T00:17:06.768Z,14.60
2018-07-11T00:19:35.071Z,14.60
2018-07-11T00:22:03.278Z,14.60
2018-07-11T00:24:31.509Z,14.70
2018-07-11T00:26:59.752Z,14.70
2018-07-11T00:29:28.007Z,14.70
2018-07-11T00:31:56.258Z,14.70
2018-07-11T00:34:24.508Z,14.70
2018-07-11T00:36:52.760Z,14.70
2018-07-11T00:39:20.979Z,14.70
2018-07-11T00:41:49.228Z,14.70
2018-07-11T00:44:18.259Z,14.70
2018-07-11T00:46:46.463Z,14.70
2018-07-11T00:49:14.684Z,14.80
2018-07-11T00:51:42.944Z,14.90
2018-07-11T00:54:11.197Z,14.90
2018-07-11T00:56:39.400Z,15.00
2018-07-11T00:59:08.448Z,15.00
2018-07-11T01:01:36.696Z,15.00
2018-07-11T01:04:05.671Z,15.10
2018-07-11T01:06:34.657Z,15.10
2018-07-11T01:09:03.635Z,15.10
2018-07-11T01:11:31.846Z,15.10
2018-07-11T01:14:00.103Z,15.10
2018-07-11T01:16:29.080Z,15.20
2018-07-11T01:18:57.288Z,15.10
2018-07-11T01:21:25.518Z,15.20
2018-07-11T01:23:53.731Z,15.30
2018-07-11T01:26:21.998Z,15.30
2018-07-11T01:28:50.958Z,15.30
2018-07-11T01:31:19.232Z,15.30
2018-07-11T01:33:47.445Z,15.30
2018-07-11T01:36:15.720Z,15.30
2018-07-11T01:38:44.698Z,15.30
2018-07-11T01:41:12.929Z,15.30
2018-07-11T01:43:41.146Z,15.40
2018-07-11T01:46:09.361Z,15.40
2018-07-11T01:48:37.576Z,15.40
2018-07-11T01:51:05.846Z,15.40
2018-07-11T01:53:34.055Z,15.40
2018-07-11T01:56:02.290Z,15.40
2018-07-11T01:58:30.510Z,15.40
2018-07-11T02:00:58.768Z,15.40
2018-07-11T02:03:27.001Z,15.40
2018-07-11T02:05:55.268Z,15.40
2018-07-11T02:08:23.493Z,15.40
2018-07-11T02:10:51.747Z,15.30
2018-07-11T02:13:20.002Z,15.30
2018-07-11T02:15:48.215Z,15.30
2018-07-11T02:18:16.424Z,15.30
2018-07-11T02:20:44.650Z,15.40
2018-07-11T02:23:12.902Z,15.40
2018-07-11T02:25:41.914Z,15.40
2018-07-11T02:28:10.173Z,15.40
2018-07-11T02:30:39.174Z,15.20
2018-07-11T02:33:07.424Z,15.20
2018-07-11T02:35:35.638Z,15.10
2018-07-11T02:38:03.850Z,15.20
2018-07-11T02:40:32.108Z,15.20
2018-07-11T02:43:00.382Z,15.30
2018-07-11T02:45:28.598Z,15.30
2018-07-11T02:47:56.860Z,15.40
2018-07-11T02:50:25.077Z,15.30
2018-07-11T02:52:53.333Z,15.30
2018-07-11T02:55:21.591Z,15.40
2018-07-11T02:57:49.839Z,15.40
2018-07-11T03:00:18.065Z,15.40
2018-07-11T03:02:47.085Z,15.40
2018-07-11T03:05:15.343Z,15.40
2018-07-11T03:07:44.369Z,15.30
2018-07-11T03:10:12.625Z,15.30
2018-07-11T03:12:40.879Z,15.30
2018-07-11T03:15:09.131Z,15.30
2018-07-11T03:17:37.338Z,15.40
2018-07-11T03:20:06.317Z,15.40
2018-07-11T03:22:34.588Z,15.40
2018-07-11T03:25:02.850Z,15.40
2018-07-11T03:27:31.094Z,15.40
2018-07-11T03:29:59.380Z,15.30
2018-07-11T03:32:27.729Z,15.20
2018-07-11T03:34:55.885Z,15.20
2018-07-11T03:37:24.144Z,15.20
2018-07-11T03:39:52.352Z,15.20
2018-07-11T03:42:21.370Z,15.20
2018-07-11T03:44:49.608Z,15.10
2018-07-11T03:47:17.829Z,15.20
2018-07-11T03:49:46.039Z,15.20
2018-07-11T03:52:14.302Z,15.10
2018-07-11T03:54:42.516Z,15.10
2018-07-11T03:57:11.556Z,15.10
2018-07-11T03:59:39.810Z,15.10
2018-07-11T04:02:08.780Z,15.10
2018-07-11T04:04:37.802Z,15.10
2018-07-11T04:07:06.024Z,15.00
2018-07-11T04:09:34.257Z,15.00
2018-07-11T04:12:02.529Z,15.00
2018-07-11T04:14:31.495Z,14.80
2018-07-11T04:17:00.496Z,14.70
2018-07-11T04:19:29.490Z,14.50
2018-07-11T04:21:57.741Z,14.50
2018-07-11T04:24:25.948Z,14.60
2018-07-11T04:26:54.980Z,14.60
2018-07-11T04:29:23.200Z,14.60
2018-07-11T04:31:51.469Z,14.60
2018-07-11T04:34:19.722Z,14.70
2018-07-11T04:36:47.986Z,14.70
2018-07-11T04:39:16.450Z,14.60
2018-07-11T04:41:45.288Z,14.60
2018-07-11T04:44:13.488Z,14.60
2018-07-11T04:46:42.484Z,14.80
2018-07-11T04:49:11.512Z,14.80
2018-07-11T04:51:39.762Z,14.80
2018-07-11T04:54:08.752Z,15.00
2018-07-11T04:56:37.089Z,15.00
2018-07-11T04:59:05.268Z,15.00
2018-07-11T05:01:33.540Z,15.10
2018-07-11T05:04:01.798Z,15.10
2018-07-11T05:06:30.023Z,15.10
2018-07-11T05:08:58.278Z,15.10
2018-07-11T05:11:26.548Z,15.20
2018-07-11T05:13:54.864Z,15.10
2018-07-11T05:16:23.026Z,15.20
2018-07-11T05:18:51.251Z,15.20
2018-07-11T05:21:19.529Z,15.30
2018-07-11T05:23:47.743Z,15.30
2018-07-11T05:26:16.015Z,15.20
2018-07-11T05:28:44.224Z,15.30
2018-07-11T05:31:13.254Z,15.40
2018-07-11T05:33:41.492Z,15.40
2018-07-11T05:36:09.753Z,15.40
2018-07-11T05:38:37.967Z,15.50
2018-07-11T05:41:06.194Z,15.50
2018-07-11T05:43:34.404Z,15.50
2018-07-11T05:46:03.439Z,15.60
2018-07-11T05:48:31.663Z,15.60
2018-07-11T05:51:00.658Z,15.70
2018-07-11T05:53:28.872Z,15.60
2018-07-11T05:55:57.098Z,15.70
2018-07-11T05:58:25.311Z,15.70
2018-07-11T06:00:53.566Z,15.70
2018-07-11T06:03:21.819Z,15.70
2018-07-11T06:05:50.830Z,15.70
2018-07-11T06:08:19.093Z,15.60
2018-07-11T06:10:47.343Z,15.70
2018-07-11T06:13:15.626Z,15.60
2018-07-11T06:15:43.812Z,15.60
2018-07-11T06:18:12.063Z,15.50
2018-07-11T06:20:40.281Z,15.50
2018-07-11T06:23:08.515Z,15.50
2018-07-11T06:25:36.735Z,15.40
2018-07-11T06:28:04.999Z,15.20
2018-07-11T06:30:33.248Z,15.20
2018-07-11T06:33:01.471Z,15.20
2018-07-11T06:35:29.696Z,15.30
2018-07-11T06:37:58.046Z,15.30
2018-07-11T06:40:26.182Z,15.30
2018-07-11T06:42:54.439Z,15.40
2018-07-11T06:45:22.655Z,15.50
2018-07-11T06:47:50.898Z,15.60
2018-07-11T06:50:19.150Z,15.80
2018-07-11T06:52:47.418Z,15.90
2018-07-11T06:55:15.617Z,16.00
2018-07-11T06:57:43.845Z,16.10
2018-07-11T07:00:12.054Z,16.40
2018-07-11T07:02:40.315Z,16.60
2018-07-11T07:05:08.534Z,16.60
2018-07-11T07:07:36.744Z,16.70
2018-07-11T07:10:05.723Z,16.80
2018-07-11T07:12:33.946Z,16.70
2018-07-11T07:15:02.211Z,16.80
2018-07-11T07:17:31.199Z,16.90
2018-07-11T07:20:00.215Z,16.90
2018-07-11T07:22:28.494Z,16.90
2018-07-11T07:24:56.701Z,16.90
2018-07-11T07:27:24.990Z,17.00
2018-07-11T07:29:53.221Z,17.00
2018-07-11T07:32:21.469Z,17.00
2018-07-11T07:34:50.525Z,17.10
2018-07-11T07:37:18.685Z,17.10
2018-07-11T07:39:46.901Z,17.20
2018-07-11T07:42:15.136Z,17.20
2018-07-11T07:44:43.335Z,17.20
2018-07-11T07:47:11.698Z,17.20
2018-07-11T07:49:39.861Z,17.30
2018-07-11T07:52:08.127Z,17.30
2018-07-11T07:54:36.402Z,17.30
2018-07-11T07:57:04.657Z,17.30
2018-07-11T07:59:33.661Z,17.40
2018-07-11T08:02:01.885Z,17.30
2018-07-11T08:04:30.126Z,17.40
2018-07-11T08:06:58.389Z,17.50
2018-07-11T08:09:27.399Z,17.50
2018-07-11T08:11:55.673Z,17.50
2018-07-11T08:14:23.914Z,17.40
2018-07-11T08:16:52.182Z,17.20
2018-07-11T08:19:20.422Z,17.30
2018-07-11T08:21:48.672Z,17.20
2018-07-11T08:27:27.493Z,17.40
2018-07-11T08:29:55.684Z,17.40
2018-07-11T08:32:23.904Z,17.50
2018-07-11T08:34:52.127Z,17.50
2018-07-11T08:37:21.166Z,17.90
2018-07-11T08:39:49.369Z,17.90
2018-07-11T08:42:17.580Z,18.10
2018-07-11T08:44:45.811Z,18.20
2018-07-11T08:47:14.069Z,18.30
2018-07-11T08:49:42.325Z,18.40
2018-07-11T08:52:10.562Z,18.50
2018-07-11T08:54:38.822Z,18.50
2018-07-11T08:57:07.027Z,18.60
2018-07-11T08:59:36.063Z,18.60
2018-07-11T09:02:04.305Z,18.60
2018-07-11T09:04:33.337Z,18.50
2018-07-11T09:07:01.540Z,18.50
2018-07-11T09:09:29.767Z,18.50
2018-07-11T09:11:58.033Z,18.50
2018-07-11T09:14:26.997Z,18.50
2018-07-11T09:16:55.271Z,18.50
2018-07-11T09:19:23.467Z,18.40
2018-07-11T09:21:52.505Z,18.50
2018-07-11T09:24:20.765Z,18.50
2018-07-11T09:26:49.781Z,18.60
2018-07-11T09:29:18.040Z,18.60
2018-07-11T09:31:46.289Z,18.70
2018-07-11T09:34:15.293Z,18.80
2018-07-11T09:36:44.351Z,18.80
2018-07-11T09:39:12.563Z,18.80
2018-07-11T09:41:41.603Z,18.80
2018-07-11T09:44:09.816Z,18.80
2018-07-11T09:46:38.839Z,18.90
2018-07-11T09:49:07.872Z,18.90
2018-07-11T09:51:36.069Z,18.90
2018-07-11T09:54:04.297Z,18.90
2018-07-11T09:56:32.519Z,18.70
2018-07-11T09:59:00.729Z,18.70
2018-07-11T10:01:28.941Z,18.70
2018-07-11T10:03:57.213Z,18.80
2018-07-11T10:06:25.416Z,18.80
2018-07-11T10:08:53.688Z,18.70
2018-07-11T10:11:21.923Z,18.80
2018-07-11T10:13:50.136Z,18.90
2018-07-11T10:16:19.125Z,19.30
2018-07-11T10:18:47.392Z,19.30
2018-07-11T10:21:15.611Z,19.30
2018-07-11T10:23:44.617Z,19.40
2018-07-11T10:26:13.590Z,18.90
2018-07-11T10:28:41.807Z,18.90
2018-07-11T10:31:10.065Z,19.20
2018-07-11T10:33:39.052Z,19.70
2018-07-11T10:36:08.033Z,19.90
2018-07-11T10:38:36.302Z,19.90
2018-07-11T10:41:04.516Z,20.00
2018-07-11T10:43:33.527Z,20.30
2018-07-11T10:46:02.519Z,20.40
2018-07-11T10:48:30.811Z,20.40
2018-07-11T10:50:59.023Z,20.40
2018-07-11T10:53:27.316Z,20.50
2018-07-11T10:55:55.562Z,20.50
2018-07-11T10:58:23.833Z,20.40
2018-07-11T11:01:05.030Z,20.20
2018-07-11T11:03:20.304Z,20.30
2018-07-11T11:05:48.573Z,20.50
2018-07-11T11:08:17.591Z,20.70
2018-07-11T11:10:45.804Z,20.70
2018-07-11T11:13:14.028Z,20.60
2018-07-11T11:15:42.282Z,20.70
2018-07-11T11:18:10.545Z,20.90
2018-07-11T11:20:38.746Z,21.20
2018-07-11T11:23:07.004Z,21.30
2018-07-11T11:25:35.214Z,21.50
2018-07-11T11:28:03.440Z,21.40
2018-07-11T11:30:31.682Z,21.00
2018-07-11T11:33:00.720Z,21.40
2018-07-11T11:35:28.922Z,21.30
2018-07-11T11:37:58.910Z,21.30
2018-07-11T11:40:27.122Z,21.10
2018-07-11T11:42:55.476Z,21.40
2018-07-11T11:45:23.652Z,21.50
2018-07-11T11:47:51.864Z,21.30
2018-07-11T11:50:20.122Z,20.90
2018-07-11T11:52:48.406Z,21.10
2018-07-11T11:55:16.687Z,21.20
2018-07-11T11:57:44.896Z,21.40
2018-07-11T12:00:13.108Z,21.40
2018-07-11T12:02:41.320Z,21.50
2018-07-11T12:05:09.530Z,21.40
2018-07-11T12:07:37.799Z,21.60
2018-07-11T12:10:06.768Z,22.10
2018-07-11T12:12:34.998Z,22.10
2018-07-11T12:15:03.214Z,22.30
2018-07-11T12:17:31.496Z,22.40
2018-07-11T12:19:59.703Z,22.40
2018-07-11T12:22:27.993Z,22.40
2018-07-11T12:24:56.213Z,22.40
2018-07-11T12:27:24.474Z,22.30
2018-07-11T12:29:52.715Z,22.20
2018-07-11T12:32:20.931Z,22.00
2018-07-11T12:34:49.177Z,21.80
2018-07-11T12:37:17.389Z,21.60
2018-07-11T12:39:45.626Z,21.50
2018-07-11T12:42:13.841Z,21.50
2018-07-11T12:44:42.073Z,21.30
2018-07-11T12:47:10.277Z,20.90
2018-07-11T12:49:38.495Z,21.00
2018-07-11T12:52:07.494Z,20.60
2018-07-11T12:54:36.470Z,20.40
2018-07-11T12:57:04.741Z,20.40
2018-07-11T12:59:32.992Z,20.50
2018-07-11T13:02:01.209Z,20.10
2018-07-11T13:04:30.225Z,20.50
2018-07-11T13:06:59.258Z,20.60
2018-07-11T13:09:27.525Z,20.60
2018-07-11T13:11:55.779Z,20.70
2018-07-11T13:14:24.041Z,21.00
2018-07-11T13:16:52.362Z,21.20
2018-07-11T13:19:20.573Z,21.40
2018-07-11T13:21:49.552Z,21.50
2018-07-11T13:24:17.831Z,21.70
2018-07-11T13:26:46.043Z,21.70
2018-07-11T13:29:15.081Z,22.30
2018-07-11T13:31:43.302Z,22.30
2018-07-11T13:34:11.578Z,22.40
2018-07-11T13:36:39.784Z,22.50
2018-07-11T13:39:08.005Z,22.30
2018-07-11T13:41:36.238Z,22.30
2018-07-11T13:44:04.453Z,22.40
2018-07-11T13:46:32.731Z,22.60
2018-07-11T13:49:00.942Z,22.70
2018-07-11T13:51:29.984Z,22.50
2018-07-11T13:53:58.264Z,22.50
2018-07-11T13:56:26.501Z,22.30
2018-07-11T13:58:55.480Z,22.50
2018-07-11T14:01:24.519Z,22.40
2018-07-11T14:03:52.727Z,22.40
2018-07-11T14:06:20.968Z,22.40
2018-07-11T14:08:49.216Z,22.60
2018-07-11T14:11:18.245Z,23.00
2018-07-11T14:13:46.459Z,23.00
2018-07-11T14:16:14.741Z,23.20
2018-07-11T14:18:43.054Z,23.30
2018-07-11T14:21:12.082Z,23.40
2018-07-11T14:23:40.326Z,23.30
2018-07-11T14:26:08.644Z,23.30
2018-07-11T14:28:37.751Z,23.00
2018-07-11T14:31:05.970Z,22.80
2018-07-11T14:33:34.264Z,22.90
2018-07-11T14:36:02.527Z,22.90
2018-07-11T14:38:31.502Z,22.70
2018-07-11T14:40:59.848Z,22.70
2018-07-11T14:43:28.062Z,22.60
2018-07-11T14:45:57.061Z,22.30
2018-07-11T14:48:26.092Z,22.30
2018-07-11T14:50:54.310Z,22.20
2018-07-11T14:53:24.079Z,22.00
2018-07-11T14:55:52.301Z,22.00
2018-07-11T14:58:20.591Z,22.00
2018-07-11T15:00:49.620Z,21.80
2018-07-11T15:03:17.864Z,21.80
2018-07-11T15:05:46.882Z,21.60
2018-07-11T15:08:15.144Z,21.60
2018-07-11T15:10:43.309Z,21.60
2018-07-11T15:13:17.614Z,21.40
2018-07-11T15:15:46.649Z,21.00
2018-07-11T15:18:14.849Z,21.00
2018-07-11T15:20:43.139Z,21.00
2018-07-11T15:23:11.382Z,21.00
2018-07-11T15:25:39.592Z,20.90
2018-07-11T15:28:07.868Z,20.70
2018-07-11T15:30:36.078Z,20.70
2018-07-11T15:33:05.066Z,20.50
2018-07-11T15:35:34.079Z,20.50
2018-07-11T15:38:05.229Z,20.60
2018-07-11T15:40:33.491Z,20.60
2018-07-11T15:43:02.485Z,20.60
2018-07-11T15:45:31.514Z,20.80
2018-07-11T15:47:59.815Z,20.80
2018-07-11T15:50:28.069Z,21.00
2018-07-11T15:52:56.341Z,21.00
2018-07-11T15:55:24.597Z,21.00
2018-07-11T15:57:53.606Z,21.30
2018-07-11T16:00:21.826Z,21.30
2018-07-11T16:02:50.090Z,21.40
2018-07-11T16:05:18.415Z,21.40
2018-07-11T16:07:46.595Z,21.20
2018-07-11T16:10:15.617Z,21.60
2018-07-11T16:12:43.852Z,21.60
2018-07-11T16:15:12.076Z,21.80
2018-07-11T16:17:41.008Z,22.00
2018-07-11T16:20:09.254Z,22.00
2018-07-11T16:22:37.575Z,22.10
2018-07-11T16:25:05.838Z,22.00
2018-07-11T16:27:34.057Z,22.00
2018-07-11T16:30:02.294Z,21.90
2018-07-11T16:32:30.526Z,21.90
2018-07-11T16:34:58.792Z,21.80
2018-07-11T16:37:27.094Z,21.70
2018-07-11T16:39:55.357Z,21.60
2018-07-11T16:42:23.575Z,21.60
2018-07-11T16:44:51.838Z,21.50
2018-07-11T16:47:20.109Z,21.40
2018-07-11T16:49:48.363Z,21.30
2018-07-11T16:52:16.621Z,21.10
2018-07-11T16:54:44.846Z,21.00
2018-07-11T16:57:13.104Z,20.90
2018-07-11T16:59:41.305Z,20.80
2018-07-11T17:02:09.528Z,20.70
2018-07-11T17:04:37.793Z,20.60
2018-07-11T17:07:06.823Z,20.40
2018-07-11T17:09:35.091Z,20.40
2018-07-11T17:12:04.112Z,20.20
2018-07-11T17:14:32.438Z,20.20
2018-07-11T17:17:00.722Z,20.20
2018-07-11T17:19:29.741Z,20.00
2018-07-11T17:21:58.978Z,20.00
2018-07-11T17:24:27.202Z,20.00
2018-07-11T17:26:55.508Z,19.90
2018-07-11T17:29:23.759Z,19.90
2018-07-11T17:31:51.972Z,19.80
2018-07-11T17:34:20.216Z,19.80
2018-07-11T17:36:48.474Z,19.70
2018-07-11T17:39:17.510Z,19.70
2018-07-11T17:41:45.764Z,19.70
2018-07-11T17:44:13.998Z,19.70
2018-07-11T17:46:42.251Z,19.70
2018-07-11T17:49:10.465Z,19.70
2018-07-11T17:51:39.446Z,19.70
2018-07-11T17:54:08.456Z,19.70
2018-07-11T17:56:36.679Z,19.70
2018-07-11T17:59:05.697Z,19.70
2018-07-11T18:01:34.188Z,19.70
2018-07-11T18:04:02.423Z,19.70
2018-07-11T18:06:31.673Z,19.70
2018-07-11T18:08:59.889Z,19.70
2018-07-11T18:11:28.130Z,19.70
2018-07-11T18:13:57.442Z,19.70
2018-07-11T18:16:25.688Z,19.70
2018-07-11T18:18:53.895Z,19.70
2018-07-11T18:21:22.193Z,19.60
2018-07-11T18:23:50.407Z,19.60
2018-07-11T18:26:18.641Z,19.60
2018-07-11T18:28:46.882Z,19.60
2018-07-11T18:31:15.141Z,19.60
2018-07-11T18:33:43.360Z,19.60
2018-07-11T18:36:11.923Z,19.60
2018-07-11T18:38:40.150Z,19.60
2018-07-11T18:41:08.430Z,19.50
2018-07-11T18:43:36.646Z,19.50
2018-07-11T18:46:06.597Z,19.50
2018-07-11T18:48:34.820Z,19.40
2018-07-11T18:51:03.090Z,19.40
2018-07-11T18:53:31.313Z,19.40
2018-07-11T18:56:00.352Z,19.40
2018-07-11T18:58:28.671Z,19.40
2018-07-11T19:00:57.713Z,19.30
2018-07-11T19:03:25.918Z,19.30
2018-07-11T19:05:54.288Z,19.30
2018-07-11T19:08:22.485Z,19.30
2018-07-11T19:10:50.703Z,19.30
2018-07-11T19:13:18.927Z,19.30
2018-07-11T19:15:47.243Z,19.30
2018-07-11T19:18:16.290Z,19.20
2018-07-11T19:20:44.548Z,19.20
2018-07-11T19:23:12.764Z,19.20
2018-07-11T19:25:40.994Z,19.20
2018-07-11T19:28:09.270Z,19.10
2018-07-11T19:30:37.500Z,19.10
2018-07-11T19:33:05.792Z,19.10
2018-07-11T19:35:33.991Z,19.10
2018-07-11T19:38:02.221Z,18.80
2018-07-11T19:40:30.469Z,18.80
2018-07-11T19:42:58.720Z,18.80
2018-07-11T19:45:26.982Z,18.80
2018-07-11T19:47:56.022Z,18.70
2018-07-11T19:50:24.241Z,18.70
2018-07-11T19:52:53.299Z,18.70
2018-07-11T19:55:21.551Z,18.70
2018-07-11T19:57:49.833Z,18.70
2018-07-11T20:00:18.055Z,18.60
2018-07-11T20:02:46.322Z,18.60
2018-07-11T20:05:14.601Z,18.60
2018-07-11T20:07:42.883Z,18.50
2018-07-11T20:10:11.152Z,18.40
2018-07-11T20:12:39.383Z,18.40
2018-07-11T20:15:07.653Z,18.20
2018-07-11T20:17:35.939Z,18.20
2018-07-11T20:20:04.143Z,18.20
2018-07-11T20:22:32.395Z,18.20
2018-07-11T20:25:00.662Z,18.10
2018-07-11T20:27:28.879Z,18.00
2018-07-11T20:29:57.133Z,17.90
2018-07-11T20:32:25.360Z,17.80
2018-07-11T20:34:54.344Z,17.80
2018-07-11T20:37:23.338Z,17.80
2018-07-11T20:39:52.358Z,17.70
2018-07-11T20:42:21.372Z,17.60
2018-07-11T20:44:49.586Z,17.60
2018-07-11T20:47:17.810Z,17.50
2018-07-11T20:49:46.096Z,17.40
2018-07-11T20:52:14.341Z,17.20
2018-07-11T20:54:43.339Z,17.20
2018-07-11T20:57:12.368Z,17.20
2018-07-11T21:02:48.358Z,17.00
2018-07-11T21:05:16.589Z,16.90
2018-07-11T21:07:44.799Z,16.90
2018-07-11T21:10:13.077Z,16.90
2018-07-11T21:12:41.292Z,16.90
2018-07-11T21:15:09.566Z,16.90
2018-07-11T21:17:37.770Z,16.90
2018-07-11T21:20:06.788Z,16.60
2018-07-11T21:22:35.037Z,16.60
2018-07-11T21:25:04.004Z,16.60
2018-07-11T21:27:32.317Z,16.60
2018-07-11T21:30:01.292Z,16.50
2018-07-11T21:32:29.573Z,16.50
2018-07-11T21:34:57.805Z,16.50
2018-07-11T21:37:26.011Z,16.50
2018-07-11T21:39:54.228Z,16.40
2018-07-11T21:42:22.473Z,16.40
2018-07-11T21:44:50.673Z,16.30
2018-07-11T21:47:18.953Z,16.30
2018-07-11T21:49:47.160Z,16.30
2018-07-11T21:52:15.426Z,16.40
2018-07-11T21:54:43.677Z,16.40
2018-07-11T21:57:12.715Z,16.30
2018-07-11T21:59:40.906Z,16.30
2018-07-11T22:02:09.183Z,16.30
2018-07-11T22:04:37.396Z,16.30
2018-07-11T22:07:05.639Z,16.00
2018-07-11T22:09:33.889Z,16.10
2018-07-11T22:12:02.105Z,16.10
2018-07-11T22:14:30.325Z,16.10
2018-07-11T22:16:58.557Z,16.20
2018-07-11T22:19:26.811Z,16.10
2018-07-11T22:21:54.550Z,16.10
2018-07-11T22:24:22.286Z,15.90
2018-07-11T22:26:50.018Z,15.90
2018-07-11T22:29:17.792Z,15.90
2018-07-11T22:31:45.509Z,15.70
2018-07-11T22:34:13.247Z,15.60
2018-07-11T22:36:40.975Z,15.60
2018-07-11T22:39:08.742Z,15.70
2018-07-11T22:41:36.505Z,15.70
2018-07-11T22:44:04.238Z,15.70
2018-07-11T22:46:32.009Z,15.60
2018-07-11T22:48:59.738Z,15.60
2018-07-11T22:51:27.527Z,15.60
2018-07-11T22:53:55.290Z,15.60
2018-07-11T22:56:23.045Z,15.70
2018-07-11T22:58:50.827Z,15.70
2018-07-11T23:01:18.589Z,15.70
2018-07-11T23:03:46.342Z,15.70
2018-07-11T23:06:14.116Z,15.70
2018-07-11T23:08:41.828Z,15.70
2018-07-11T23:11:09.610Z,15.70
2018-07-11T23:13:37.357Z,15.80
2018-07-11T23:16:05.128Z,15.80
2018-07-11T23:18:32.838Z,15.80
2018-07-11T23:21:00.610Z,15.80
2018-07-11T23:23:28.320Z,15.80
2018-07-11T23:25:56.086Z,15.80
2018-07-11T23:28:23.856Z,15.90
2018-07-11T23:30:51.614Z,15.90
2018-07-11T23:33:19.362Z,16.00
2018-07-11T23:35:47.125Z,16.00
2018-07-11T23:38:15.767Z,16.10
2018-07-11T23:40:43.512Z,16.10
2018-07-11T23:43:11.996Z,16.10
2018-07-11T23:45:39.715Z,16.10
2018-07-11T23:48:08.206Z,16.20
2018-07-11T23:50:35.953Z,16.10
2018-07-11T23:53:03.674Z,16.20
2018-07-11T23:55:31.436Z,16.20
2018-07-11T23:57:59.920Z,16.20
